WEATHER DATA

YESTERDAY
Time Temp. Dewp. Hum. Wind dir Wind speed Wind gust Bar. 1h Prec. 24h Prec.
00:01 3.3 2 91 0 0 1018.8 0.0000 0.0000
00:12 3.2 1.7 90 0 0 1018.9 0.0000 0.0000
00:22 3.2 1.9 91 0 0 1019.1 0.0000 0.0000
00:31 3.2 1.9 91 0 0 1019.2 0.0000 0.0000
00:35 3.2 1.9 91 0 0 1019.3 0.0000 0.0000
00:51 3.2 1.9 91 0 0 1019.4 0.0000 0.0000
01:10 2.9 1.4 90 0 0 1019.3 0.0000 0.0000
01:13 2.8 1.3 90 0 0 1019.4 0.0000 0.0000
01:28 2.5 1 90 0 0 1019.8 0.0000 0.0000
01:39 2.5 1 90 0 0 1019.9 0.0000 0.0000
01:47 2.5 1.2 91 0 0 1020.3 0.0000 0.0000
02:21 2.3 1 91 0 0 1020.5 0.0000 0.0000
02:31 1.9 0.4 90 0 0 1020.5 0.0000 0.0000
02:40 1.6 0.1 90 0 0 1020.6 0.0000 0.0000
02:50 1.4 0 90 0 0 1020.6 0.0000 0.0000
02:56 1.3 -0.1 90 0 0 1020.6 0.0000 0.0000
03:09 1.3 -0.1 90 0 0 1020.5 0.0000 0.0000
03:21 1.3 0 91 0 0 1020.6 0.0000 0.0000
03:27 1.3 0 91 0 0 1021.2 0.0000 0.0000
04:01 0.7 -0.7 90 0 0 1021.2 0.0000 0.0000
04:12 0.5 -0.8 90 0 0 1021.2 0.0000 0.0000
04:21 0.5 -0.8 90 0 0 1021.1 0.0000 0.0000
04:28 0.5 -0.7 91 0 0 1021.1 0.0000 0.0000
04:42 0.6 -0.6 91 0 0 1021.3 0.0000 0.0000
04:45 0.7 -0.5 91 0 0 1021.3 0.0000 0.0000
07:10 1.9 0.7 92 0 0 1022.5 0.0000 0.0000
07:17 1.9 0.7 92 0 0 1022.7 0.0000 0.0000
07:28 1.9 0.7 92 0 0 1022.7 0.0000 0.0000
07:40 1.9 0.7 92 0 0 1022.7 0.0000 0.0000
07:50 1.9 0.7 92 0 0 1022.7 0.0000 0.0000
08:00 1.9 0.7 92 0 0 1022.7 0.0000 0.0000
08:09 1.8 0.6 92 0 0 1022.8 0.0000 0.0000
08:19 1.7 0.5 92 0 0 1022.8 0.0000 0.0000
08:30 1.7 0.5 92 0 0 1022.8 0.0000 0.0000
08:40 1.7 0.5 92 0 0 1022.8 0.0000 0.0000
08:50 1.7 0.5 92 0 0 1022.8 0.0000 0.0000
09:00 1.8 0.6 92 0 0 1023 0.0000 0.0000
09:10 1.8 0.6 92 0 0 1023 0.0000 0.0000
09:21 1.9 0.7 92 0 0 1023.1 0.0000 0.0000
09:31 2 0.8 92 0 0 1023.1 0.0000 0.0000
09:38 2 0.8 92 0 0 1023.4 0.0000 0.0000
09:50 2.1 0.9 92 0 0 1023.4 0.0000 0.0000
10:00 2.1 0.9 92 0 0 1023.5 0.0000 0.0000
10:11 2.1 0.9 92 0 0 1023.6 0.0000 0.0000
10:20 2.2 1 92 0 0 1023.5 0.0000 0.0000
10:31 2.4 1.2 92 0 0 1023.7 0.0000 0.0000
10:41 2.5 1.3 92 0 0 1023.8 0.0000 0.0000
10:51 2.5 1.3 92 0 0 1023.9 0.0000 0.0000
11:00 2.6 1.4 92 0 0 1023.9 0.0000 0.0000
11:11 2.6 1.4 92 0 0 1023.9 0.0000 0.0000
11:21 2.7 1.5 92 0 0 1024 0.0000 0.0000
11:31 2.7 1.5 92 0 0 1024 0.0000 0.0000
11:42 2.9 1.7 92 0 0 1023.9 0.0000 0.0000
11:51 3 1.8 92 0 0 1023.8 0.0000 0.0000
12:01 3 1.8 92 0 0 1023.9 0.0000 0.0000
12:11 3.3 2.1 92 0 0 1023.8 0.0000 0.0000
12:16 3.6 2.6 93 0 0 1023.8 0.0000 0.0000
14:14 3.8 2.5 91 0 0 1022.8 0.0000 0.0000
14:15 3.8 2.5 91 0 0 1022.7 0.0000 0.0000
14:34 3.8 2.2 89 0 0 1022.7 0.0000 0.0000
14:44 3.6 1.8 88 0 0 1022.6 0.0000 0.0000
14:53 3.4 1.4 87 0 0 1022.7 0.0000 0.0000
14:54 3.3 1.5 88 0 0 1022.6 0.0000 0.0000
15:24 3 1.2 88 0 0 1022.7 0.0000 0.0000
15:34 2.9 1.1 88 0 0 1022.6 0.0000 0.0000
15:44 2.7 0.9 88 0 0 1022.7 0.0000 0.0000
15:54 2.5 0.7 88 0 0 1023 0.0000 0.0000
15:55 2.5 0.7 88 0 0 1022.9 0.0000 0.0000
16:09 2.3 0.7 89 0 0 1023 0.0000 0.0000
16:25 2.1 0.5 89 0 0 1022.9 0.0000 0.0000
16:31 2 0.4 89 0 0 1022.8 0.0000 0.0000
17:10 2 0.5 90 0 0 1022.9 0.0000 0.0000
17:13 2 0.5 90 0 0 1023.1 0.0000 0.0000
17:53 2.2 0.9 91 0 0 1023.4 0.0000 0.0000
18:17 2.2 0.9 91 0 0 1023.4 0.0000 0.0000
18:28 2.1 0.8 91 0 0 1023.6 0.0000 0.0000
18:59 2 0.7 91 0 0 1023.6 0.0000 0.0000
19:06 2 0.7 91 0 0 1023.7 0.0000 0.0000
19:18 2 0.7 91 0 0 1023.6 0.0000 0.0000
19:24 1.9 0.6 91 0 0 1023.8 0.0000 0.0000
19:39 1.8 0.5 91 0 0 1023.6 0.0000 0.0000
19:49 1.8 0.5 91 0 0 1023.7 0.0000 0.0000
19:59 1.8 0.6 92 0 0 1023.8 0.0000 0.0000
20:09 1.9 0.7 92 0 0 1023.8 0.0000 0.0000
20:17 1.9 0.7 92 0 0 1023.8 0.0000 0.0000
20:29 2 0.8 92 0 0 1023.9 0.0000 0.0000
20:40 2 0.8 92 0 0 1023.8 0.0000 0.0000
20:50 2 0.8 92 0 0 1023.9 0.0000 0.0000
20:59 2.1 0.9 92 0 0 1023.8 0.0000 0.0000
21:09 2.1 0.9 92 0 0 1023.7 0.0000 0.0000
21:19 2.1 0.9 92 0 0 1023.8 0.0000 0.0000
21:28 2 0.8 92 0 0 1023.6 0.0000 0.0000
21:37 2 0.8 92 0 0 1023.4 0.0000 0.0000
21:44 2 0.8 92 0 0 1023.2 0.0000 0.0000
21:53 1.9 0.7 92 0 0 1023.2 0.0000 0.0000
22:08 1.9 0.7 92 0 0 1023.1 0.0000 0.0000
22:19 1.9 0.7 92 0 0 1023.2 0.0000 0.0000
22:30 1.9 0.7 92 0 0 1023.2 0.0000 0.0000
22:39 1.8 0.5 91 0 0 1023.5 0.0000 0.0000
22:50 1.7 0.4 91 0 0 1023.5 0.0000 0.0000
23:01 1.8 0.6 92 0 0 1023.5 0.0000 0.0000
23:06 1.8 0.6 92 0 0 1023.4 0.0000 0.0000
23:20 1.8 0.6 92 0 0 1023.2 0.0000 0.0000
23:29 1.8 0.6 92 0 0 1023.4 0.0000 0.0000
23:40 1.8 0.6 92 0 0 1023.4 0.0000 0.0000
23:49 1.8 0.6 92 0 0 1023.2 0.0000 0.0000

DAY STATISTIC

2018-12-10
TEMPERATURE
AVERAGE
2.2
HIGH
3.8
14:14
LOW
0.5
04:12
PRESSURE
AVERAGE
1022.6
HIGH
1024.0
11:21
LOW
1018.8
00:01
DEWPOINT
AVERAGE
0.9
HIGH
2.6
12:16
LOW
-0.8
04:12
HUMIDITY
AVERAGE
91
HIGH
93
12:16
LOW
87
14:53
WIND SPEED
AVERAGE
0.0
HIGH
0.0
00:28
WIND GUST
AVERAGE
0.0
HIGH
0.0
00:28
WIND DIRECTION
PREVAILING
%
PRECIPITATION
RAIN HOUR
0.0
RAIN DAY
0.0
TEMPERATURE (°C)
LOW
0.5
HIGH
3.8
AVERAGE
2.2
PRESSURE (hpa)
LOW
1018.8
HIGH
1024.0
AVERAGE
1022.6
DEVICE